News

Get ATPL(A) "frozen", learn more via our free webinar!

Flying Academy is one of the biggest flight schools in Europe. We are highly specialized in offering training from ab-initio to “frozen” ATPL(A). The trainees of the program will start with PPL(A) and, upon obtaining the necessary flight experience, will continue with IR(A), CPL(A) modules or MEP (multi-engine aircraft) flight programs.

Learn more about our course from online webinat 0-ATPL(A) free of charge! 

We start on Thursday 2th of April at 16:30 UTC! Do not hesitate to register HERE and find out how to become a pilot!

continue reading >>

Flying Academy in the Flyer magazine UK

Flyer magazine in the UK is launching on March 26th it's yearly supplement "Learn to fly 2015-2016". We are happy that Flying Academy is the only European school featured in the Learn to Fly Abroad section!
 
Radim Olbrecht - Head of Training Flying Academy: "I'm proud that our continuos efforts to increase the quality of training while keeping the costs to a minimum are recognised internationally. It's a success for us that we are the only flight school in Europe being featured in the magazine and we will take this as a challenge to become better and better every day. 
 
Signs of our progress are shown to us daily and that's why students from 46 countries have decided to do or continue their training in Flying Academy at costs which are 60% cheaper than in the Western European countries, but at the same level of preparation and obtaining the same Pilot License. For this reason, we are confident to invite anybody that considers to become an Airline Pilot to come and visit us and we will reimburse the cost of the visit when the training will be started".

continue reading >>

Flying Academy is organizing a periodical trip to AERO Friedrichshafen 2015

As every year, Flying Academy is organizing a trip to one of the biggest flying exhibitions in Europe, AERO Expo in Friedrichshafen in Germany. AERO Friedrichshafen is one of the classic exhibitions which every fan of flying should have in their calendar.

The exhibition is held from 15th till 18th of April. Flying Academy aircraft will depart on midday on 16th of April (Flying Academy reserves the right to change this date in the range from 14th till 17th of April depending on the weather, program, availability, etc.). Stopover is planned in Hosín in the Czech Republic and you will arrive at Friedrichshafen airport early in the morning depending on the slot times.

Accommodation, landing fees and fuel in Hosín will be charged via MYFBO and the price is approximately 500 CZK (20 EUR). Landing in Friedrichshafen, entrance fees and fuel costs will be all together around 100 euro and will be paid on the spot in cash.

Please register for this event via email address cs@FlyingAcademy.com till the end of the March. If you book our aircraft and cancel the reservation less than 7 days in advance to the AERO Expo exhibition date, you will have to pay a cancellation fee of 1 000 CZK (40 eur) to Flying Academy.

continue reading >>

archive

Latest blog post

10 advantages for using the iPad in the cockpit

Flying Academy – the flight training organization managed by airline pilots – has started 2 months ago to equip its trainees with iPads. The Academy took the lead to revolutionize the cockpit and pilot training, realizing the vision of paperless flying and becoming the first Czech FTO to fly with iPad EFBs. The process will make learning to fly much easier, more efficient and accurate, useful for private pilots and important for future commercial pilots.

After having the iPad in trials, Flying Academy’s flight instructors have concluded that it’s extremely useful in the cockpit because it’s:

1. Fast – extremely short response time;

2. Reliable – as the iOS has very limited crashes;

3. Easy to use – intuitive menu and apps.

continue reading >>

archive

Latest weather

LKKV

LKKV 012200Z 27012G22KT 230V300 9999 BKN016 M00/M03 Q1014

LKPR

LKPR 012200Z 27016KT 9999 SCT020 01/M02 Q1013 NOSIG

LKTB

LKTB 012200Z 22003KT 6000 FEW001 SCT020 00/M00 Q1013 RESHSN NOSIG



Briefing tools

METAR & TAF Europe

METAR & TAF CZ

Weather Radar CZ

AIP Czech Republic

Integrated ATPL(A) with 750 hours of ground, MCC, JOC on B737NG or A320 FFS + interview preparation course Register now!